createdAt,value
2023-03-06T00:03:38.062Z,9.90
2023-03-06T00:08:39.511Z,16.40
2023-03-06T00:13:41.032Z,9.52
2023-03-06T00:18:43.996Z,12.80
2023-03-06T00:23:45.456Z,10.77
2023-03-06T00:28:46.903Z,11.27
2023-03-06T00:33:49.425Z,11.77
2023-03-06T00:38:51.799Z,13.13
2023-03-06T00:43:53.300Z,10.75
2023-03-06T00:48:54.780Z,12.05
2023-03-06T00:53:56.245Z,11.18
2023-03-06T00:58:59.076Z,13.88
2023-03-06T01:04:00.514Z,10.52
2023-03-06T01:09:02.289Z,12.73
2023-03-06T01:14:04.122Z,15.13
2023-03-06T01:19:05.549Z,15.15
2023-03-06T01:24:07.293Z,20.52
2023-03-06T01:29:08.847Z,13.82
2023-03-06T01:34:10.426Z,14.05
2023-03-06T01:39:12.278Z,12.60
2023-03-06T01:44:13.854Z,18.02
2023-03-06T01:49:30.398Z,15.00
2023-03-06T01:54:46.458Z,17.08
2023-03-06T01:59:52.919Z,13.30
2023-03-06T02:04:54.454Z,12.98
2023-03-06T02:09:55.987Z,14.20
2023-03-06T02:14:59.752Z,16.25
2023-03-06T02:20:12.120Z,17.73
2023-03-06T02:25:45.887Z,14.57
2023-03-06T02:30:50.923Z,19.20
2023-03-06T02:36:00.370Z,18.30
2023-03-06T02:41:06.817Z,16.52
2023-03-06T02:46:08.528Z,16.67
2023-03-06T02:51:14.289Z,14.00
2023-03-06T02:56:16.171Z,16.95
2023-03-06T03:01:18.331Z,17.10
2023-03-06T03:06:19.858Z,14.73
2023-03-06T03:11:21.700Z,18.15
2023-03-06T03:16:23.285Z,17.38
2023-03-06T03:21:24.788Z,18.27
2023-03-06T03:26:28.750Z,20.70
2023-03-06T03:31:42.181Z,16.88
2023-03-06T03:36:44.660Z,16.80
2023-03-06T03:41:47.467Z,18.00
2023-03-06T03:46:50.455Z,17.15
2023-03-06T03:51:55.781Z,24.17
2023-03-06T03:56:59.933Z,22.92
2023-03-06T04:02:06.822Z,20.13
2023-03-06T04:07:15.165Z,27.40
2023-03-06T04:12:16.775Z,26.15
2023-03-06T04:17:18.403Z,30.30
2023-03-06T04:22:20.019Z,24.95
2023-03-06T04:27:21.755Z,25.38
2023-03-06T04:32:24.033Z,23.20
2023-03-06T04:37:26.411Z,25.67
2023-03-06T04:42:29.287Z,28.27
2023-03-06T04:47:31.223Z,25.80
2023-03-06T04:52:32.800Z,22.75
2023-03-06T04:57:38.879Z,23.13
2023-03-06T05:02:42.539Z,19.63
2023-03-06T05:07:45.003Z,23.10
2023-03-06T05:12:46.579Z,24.75
2023-03-06T05:17:48.027Z,22.27
2023-03-06T05:22:49.639Z,19.65
2023-03-06T05:27:51.078Z,19.65
2023-03-06T05:32:52.579Z,18.33
2023-03-06T05:37:54.038Z,20.10
2023-03-06T05:42:55.876Z,18.17
2023-03-06T05:47:57.285Z,18.60
2023-03-06T05:52:58.850Z,20.17
2023-03-06T05:58:00.322Z,25.35
2023-03-06T06:03:02.221Z,20.77
2023-03-06T06:08:03.687Z,21.08
2023-03-06T06:13:05.694Z,19.58
2023-03-06T06:18:07.972Z,22.70
2023-03-06T06:23:12.172Z,21.52
2023-03-06T06:28:13.638Z,21.60
2023-03-06T06:33:15.136Z,21.40
2023-03-06T06:38:16.869Z,20.00
2023-03-06T06:43:18.314Z,21.67
2023-03-06T06:48:19.929Z,19.85
2023-03-06T06:53:21.383Z,20.40
2023-03-06T06:58:22.812Z,21.95
2023-03-06T07:03:24.224Z,17.50
2023-03-06T07:08:25.863Z,21.02
2023-03-06T07:13:27.399Z,25.38
2023-03-06T07:18:29.671Z,25.20
2023-03-06T07:23:31.303Z,28.55
2023-03-06T07:28:43.077Z,25.25
2023-03-06T07:33:54.392Z,36.55
2023-03-06T07:38:55.817Z,35.10
2023-03-06T07:43:57.276Z,38.78
2023-03-06T07:48:58.902Z,33.50
2023-03-06T07:54:00.356Z,35.05
2023-03-06T07:59:02.539Z,37.97
2023-03-06T08:04:04.340Z,39.33
2023-03-06T08:09:05.962Z,32.15
2023-03-06T08:14:07.377Z,37.53
2023-03-06T08:19:09.090Z,27.20
2023-03-06T08:24:10.608Z,29.95
2023-03-06T08:29:12.398Z,24.73
2023-03-06T08:34:19.867Z,34.38
2023-03-06T08:39:23.491Z,36.03
2023-03-06T08:44:24.938Z,34.33
2023-03-06T08:49:26.396Z,29.52
2023-03-06T08:54:27.840Z,30.75
2023-03-06T08:59:29.428Z,25.45
2023-03-06T09:04:31.578Z,25.33
2023-03-06T09:09:33.026Z,28.95
2023-03-06T09:14:34.495Z,26.40
2023-03-06T09:19:35.916Z,27.45
2023-03-06T09:24:37.398Z,26.35
2023-03-06T09:29:38.845Z,24.00
2023-03-06T09:34:40.297Z,27.13
2023-03-06T09:39:41.718Z,18.58
2023-03-06T09:44:47.951Z,20.55
2023-03-06T09:50:00.580Z,20.20
2023-03-06T09:55:40.895Z,24.42
2023-03-06T10:06:05.299Z,20.73
2023-03-06T10:11:10.495Z,21.13
2023-03-06T10:16:28.547Z,29.10
2023-03-06T10:21:37.484Z,30.15
2023-03-06T10:26:55.115Z,21.02
2023-03-06T10:32:09.247Z,22.20
2023-03-06T10:37:19.831Z,20.08
2023-03-06T10:42:24.948Z,25.80
2023-03-06T10:47:29.950Z,26.00
2023-03-06T10:52:34.329Z,23.35
2023-03-06T10:57:35.832Z,24.08
2023-03-06T11:02:40.861Z,22.08
2023-03-06T11:07:57.014Z,23.17
2023-03-06T11:13:18.996Z,26.60
2023-03-06T11:18:41.233Z,21.80
2023-03-06T11:23:47.316Z,21.52
2023-03-06T11:28:57.825Z,24.38
2023-03-06T11:34:08.603Z,18.92
2023-03-06T11:39:19.051Z,21.60
2023-03-06T11:44:23.075Z,25.88
2023-03-06T11:49:32.179Z,21.75
2023-03-06T11:54:33.697Z,19.48
2023-03-06T12:00:06.963Z,20.95
2023-03-06T12:05:24.911Z,17.92
2023-03-06T12:10:35.185Z,23.30
2023-03-06T12:16:00.964Z,19.13
2023-03-06T12:21:27.674Z,19.13
2023-03-06T12:26:39.185Z,16.58
2023-03-06T12:31:49.778Z,14.25
2023-03-06T12:37:08.285Z,17.70
2023-03-06T12:42:23.885Z,16.80
2023-03-06T12:47:27.895Z,14.40
2023-03-06T12:52:31.948Z,12.68
2023-03-06T12:57:33.560Z,16.08
2023-03-06T13:03:16.201Z,16.33
2023-03-06T13:08:52.699Z,12.98
2023-03-06T13:13:54.849Z,17.67
2023-03-06T13:19:02.635Z,19.13
2023-03-06T13:24:05.736Z,13.93
2023-03-06T13:29:38.275Z,14.40
2023-03-06T13:34:41.426Z,16.58
2023-03-06T13:39:54.980Z,14.85
2023-03-06T13:45:05.561Z,15.63
2023-03-06T13:50:31.066Z,17.35
2023-03-06T13:55:47.283Z,16.02
2023-03-06T14:01:19.044Z,19.30
2023-03-06T14:06:42.335Z,18.35
2023-03-06T14:11:51.837Z,20.40
2023-03-06T14:21:57.269Z,27.35
2023-03-06T14:26:58.779Z,18.60
2023-03-06T14:32:01.959Z,21.23
2023-03-06T14:37:07.538Z,21.05
2023-03-06T14:42:25.424Z,22.88
2023-03-06T14:47:33.486Z,20.85
2023-03-06T14:52:35.848Z,21.88
2023-03-06T14:57:37.864Z,20.55
2023-03-06T15:02:39.545Z,20.27
2023-03-06T15:07:42.686Z,18.33
2023-03-06T15:12:44.204Z,22.80
2023-03-06T15:17:47.571Z,17.25
2023-03-06T15:22:50.703Z,17.70
2023-03-06T15:27:56.364Z,18.75
2023-03-06T15:33:17.948Z,15.07
2023-03-06T15:38:41.843Z,17.90
2023-03-06T15:43:43.409Z,13.60
2023-03-06T15:49:03.144Z,15.80
2023-03-06T15:54:12.216Z,12.93
2023-03-06T15:59:20.241Z,14.13
2023-03-06T16:04:21.945Z,17.70
2023-03-06T16:09:23.695Z,13.85
2023-03-06T16:14:25.396Z,18.10
2023-03-06T16:19:27.901Z,12.05
2023-03-06T16:24:29.529Z,12.32
2023-03-06T16:29:31.196Z,14.68
2023-03-06T16:34:32.628Z,16.35
2023-03-06T16:39:34.106Z,17.52
2023-03-06T16:44:35.545Z,14.32
2023-03-06T16:49:37.085Z,15.48
2023-03-06T16:54:38.527Z,13.80
2023-03-06T16:59:40.017Z,13.15
2023-03-06T17:04:41.453Z,16.98
2023-03-06T17:09:43.301Z,19.30
2023-03-06T17:14:45.356Z,15.52
2023-03-06T17:19:47.980Z,19.85
2023-03-06T17:24:51.948Z,13.73
2023-03-06T17:29:55.860Z,14.98
2023-03-06T17:34:57.315Z,17.08
2023-03-06T17:39:58.771Z,18.05
2023-03-06T17:45:00.270Z,15.45
2023-03-06T17:50:01.886Z,21.80
2023-03-06T17:55:03.576Z,22.38
2023-03-06T18:00:06.365Z,22.00
2023-03-06T18:05:13.643Z,16.10
2023-03-06T18:10:15.395Z,15.43
2023-03-06T18:15:17.156Z,14.70
2023-03-06T18:20:18.594Z,22.35
2023-03-06T18:25:20.178Z,21.70
2023-03-06T18:30:21.728Z,18.83
2023-03-06T18:35:23.211Z,21.58
2023-03-06T18:40:25.021Z,16.60
2023-03-06T18:45:26.547Z,17.80
2023-03-06T18:50:28.033Z,19.08
2023-03-06T18:55:29.457Z,18.05
2023-03-06T19:00:30.990Z,21.00
2023-03-06T19:05:32.411Z,16.55
2023-03-06T19:10:38.086Z,22.08
2023-03-06T19:15:48.222Z,19.13
2023-03-06T19:20:49.944Z,17.17
2023-03-06T19:25:59.135Z,17.63
2023-03-06T19:31:09.442Z,17.60
2023-03-06T19:36:13.146Z,18.85
2023-03-06T19:41:15.350Z,15.93
2023-03-06T19:46:16.961Z,19.33
2023-03-06T19:51:18.426Z,18.35
2023-03-06T19:56:22.762Z,25.33
2023-03-06T20:01:26.706Z,16.40
2023-03-06T20:06:31.449Z,19.08
2023-03-06T20:11:33.500Z,17.90
2023-03-06T20:16:35.700Z,14.30
2023-03-06T20:21:38.357Z,22.50
2023-03-06T20:26:39.812Z,20.90
2023-03-06T20:31:41.714Z,19.52
2023-03-06T20:36:43.189Z,17.67
2023-03-06T20:41:46.688Z,18.08
2023-03-06T20:46:48.675Z,20.27
2023-03-06T20:51:50.307Z,27.52
2023-03-06T20:56:51.841Z,19.63
2023-03-06T21:01:53.321Z,20.40
2023-03-06T21:06:54.806Z,23.58
2023-03-06T21:11:56.640Z,21.67
2023-03-06T21:16:58.069Z,23.90
2023-03-06T21:21:59.554Z,21.38
2023-03-06T21:27:01.099Z,18.23
2023-03-06T21:32:02.581Z,23.35
2023-03-06T21:37:04.166Z,23.75
2023-03-06T21:42:05.758Z,20.65
2023-03-06T21:47:07.257Z,22.65
2023-03-06T21:52:08.791Z,22.20
2023-03-06T21:57:10.247Z,20.98
2023-03-06T22:02:11.679Z,24.30
2023-03-06T22:07:13.114Z,23.38
2023-03-06T22:12:14.531Z,20.08
2023-03-06T22:17:15.987Z,15.10
2023-03-06T22:22:17.434Z,22.13
2023-03-06T22:27:18.950Z,19.13
2023-03-06T22:32:20.546Z,14.05
2023-03-06T22:37:22.112Z,14.52
2023-03-06T22:42:23.554Z,14.52
2023-03-06T22:47:25.014Z,15.45
2023-03-06T22:52:26.429Z,17.50
2023-03-06T22:57:27.911Z,12.80
2023-03-06T23:02:34.214Z,12.45
2023-03-06T23:07:35.676Z,12.90
2023-03-06T23:12:37.579Z,10.55
2023-03-06T23:17:57.633Z,11.95
2023-03-06T23:23:17.833Z,10.68
2023-03-06T23:28:19.280Z,12.10
2023-03-06T23:33:20.839Z,11.88
2023-03-06T23:38:22.302Z,13.15
2023-03-06T23:43:23.803Z,10.68
2023-03-06T23:48:25.521Z,12.88
2023-03-06T23:53:26.976Z,10.30
2023-03-06T23:58:28.436Z,12.13
